sensor_id;sensor_type;location;lat;lon;timestamp;temperature;humidity
17968;DHT22;9109;48.050;11.696;2023-02-28T04:48:28;-2.70;99.90
17968;DHT22;9109;48.050;11.696;2023-02-28T04:51:30;-2.70;99.90
17968;DHT22;9109;48.050;11.696;2023-02-28T04:54:32;-2.50;99.90
17968;DHT22;9109;48.050;11.696;2023-02-28T04:57:34;-2.40;99.90
17968;DHT22;9109;48.050;11.696;2023-02-28T05:00:36;-2.40;99.90
17968;DHT22;9109;48.050;11.696;2023-02-28T05:03:39;-2.30;99.90
17968;DHT22;9109;48.050;11.696;2023-02-28T05:06:42;-2.20;99.90
17968;DHT22;9109;48.050;11.696;2023-02-28T05:09:43;-2.30;99.90
17968;DHT22;9109;48.050;11.696;2023-02-28T05:12:45;-2.20;99.90
17968;DHT22;9109;48.050;11.696;2023-02-28T05:15:50;-2.20;99.90
17968;DHT22;9109;48.050;11.696;2023-02-28T05:18:54;-2.20;99.90
17968;DHT22;9109;48.050;11.696;2023-02-28T05:21:56;-2.40;99.90
17968;DHT22;9109;48.050;11.696;2023-02-28T05:24:58;-2.50;99.90
17968;DHT22;9109;48.050;11.696;2023-02-28T05:28:17;-2.50;99.90
17968;DHT22;9109;48.050;11.696;2023-02-28T05:31:20;-2.50;99.90
17968;DHT22;9109;48.050;11.696;2023-02-28T05:34:23;-2.60;99.90
17968;DHT22;9109;48.050;11.696;2023-02-28T05:37:25;-2.50;99.90
17968;DHT22;9109;48.050;11.696;2023-02-28T05:40:30;-2.50;99.90
17968;DHT22;9109;48.050;11.696;2023-02-28T05:43:34;-2.50;99.90
17968;DHT22;9109;48.050;11.696;2023-02-28T05:46:37;-2.50;99.90
17968;DHT22;9109;48.050;11.696;2023-02-28T05:49:40;-2.50;99.90
17968;DHT22;9109;48.050;11.696;2023-02-28T05:52:49;-2.60;99.90
17968;DHT22;9109;48.050;11.696;2023-02-28T05:55:51;-2.70;99.90
17968;DHT22;9109;48.050;11.696;2023-02-28T05:58:53;-2.60;99.90
17968;DHT22;9109;48.050;11.696;2023-02-28T06:01:55;-2.60;99.90
17968;DHT22;9109;48.050;11.696;2023-02-28T06:04:58;-2.50;99.90
17968;DHT22;9109;48.050;11.696;2023-02-28T06:08:00;-2.50;99.90
17968;DHT22;9109;48.050;11.696;2023-02-28T06:11:03;-2.50;99.90
17968;DHT22;9109;48.050;11.696;2023-02-28T06:14:05;-2.50;99.90
17968;DHT22;9109;48.050;11.696;2023-02-28T06:17:08;-2.50;99.90
17968;DHT22;9109;48.050;11.696;2023-02-28T06:20:12;-2.50;99.90
17968;DHT22;9109;48.050;11.696;2023-02-28T06:23:14;-2.50;99.90
17968;DHT22;9109;48.050;11.696;2023-02-28T06:26:16;-2.40;99.90
17968;DHT22;9109;48.050;11.696;2023-02-28T06:29:18;-2.30;99.90
17968;DHT22;9109;48.050;11.696;2023-02-28T06:32:20;-2.30;99.90
17968;DHT22;9109;48.050;11.696;2023-02-28T06:35:23;-2.20;99.90
17968;DHT22;9109;48.050;11.696;2023-02-28T06:38:25;-2.20;99.90
17968;DHT22;9109;48.050;11.696;2023-02-28T06:41:27;-2.30;99.90
17968;DHT22;9109;48.050;11.696;2023-02-28T06:44:29;-2.20;99.90
17968;DHT22;9109;48.050;11.696;2023-02-28T06:47:35;-2.10;99.90
17968;DHT22;9109;48.050;11.696;2023-02-28T06:50:39;-2.10;99.90
17968;DHT22;9109;48.050;11.696;2023-02-28T06:53:41;-2.10;99.90
17968;DHT22;9109;48.050;11.696;2023-02-28T06:56:42;-2.10;99.90
17968;DHT22;9109;48.050;11.696;2023-02-28T06:59:44;-2.10;99.90
17968;DHT22;9109;48.050;11.696;2023-02-28T07:02:46;-2.00;99.90
17968;DHT22;9109;48.050;11.696;2023-02-28T07:05:50;-2.00;99.90
17968;DHT22;9109;48.050;11.696;2023-02-28T07:08:53;-2.00;99.90
17968;DHT22;9109;48.050;11.696;2023-02-28T07:11:55;-2.10;99.90
17968;DHT22;9109;48.050;11.696;2023-02-28T07:14:56;-2.10;99.90
17968;DHT22;9109;48.050;11.696;2023-02-28T07:17:58;-2.10;99.90
17968;DHT22;9109;48.050;11.696;2023-02-28T07:21:03;-2.10;99.90
17968;DHT22;9109;48.050;11.696;2023-02-28T07:24:06;-2.00;99.90
17968;DHT22;9109;48.050;11.696;2023-02-28T07:27:08;-2.00;99.90
17968;DHT22;9109;48.050;11.696;2023-02-28T07:30:11;-2.00;99.90
17968;DHT22;9109;48.050;11.696;2023-02-28T07:33:13;-1.90;99.90
17968;DHT22;9109;48.050;11.696;2023-02-28T07:36:17;-1.70;99.90
17968;DHT22;9109;48.050;11.696;2023-02-28T07:39:20;-1.70;99.90
17968;DHT22;9109;48.050;11.696;2023-02-28T07:42:22;-1.70;99.90
17968;DHT22;9109;48.050;11.696;2023-02-28T07:45:24;-1.60;99.90
17968;DHT22;9109;48.050;11.696;2023-02-28T07:48:26;-1.70;99.90
17968;DHT22;9109;48.050;11.696;2023-02-28T07:51:30;-1.90;99.90
17968;DHT22;9109;48.050;11.696;2023-02-28T07:54:32;-1.90;99.90
17968;DHT22;9109;48.050;11.696;2023-02-28T07:57:34;-2.00;99.90
17968;DHT22;9109;48.050;11.696;2023-02-28T08:00:36;-1.90;99.90
17968;DHT22;9109;48.050;11.696;2023-02-28T08:03:39;-1.90;99.90
17968;DHT22;9109;48.050;11.696;2023-02-28T08:06:42;-2.00;99.90
17968;DHT22;9109;48.050;11.696;2023-02-28T08:09:44;-1.80;99.90
17968;DHT22;9109;48.050;11.696;2023-02-28T08:12:46;-1.80;99.90
17968;DHT22;9109;48.050;11.696;2023-02-28T08:15:48;-1.60;99.90
17968;DHT22;9109;48.050;11.696;2023-02-28T08:18:50;-1.50;99.90
17968;DHT22;9109;48.050;11.696;2023-02-28T08:21:53;-1.40;99.90
17968;DHT22;9109;48.050;11.696;2023-02-28T08:24:55;-1.40;99.90
17968;DHT22;9109;48.050;11.696;2023-02-28T08:27:59;-1.50;99.90
17968;DHT22;9109;48.050;11.696;2023-02-28T08:31:07;-1.40;99.90
17968;DHT22;9109;48.050;11.696;2023-02-28T08:34:11;-1.30;99.90
17968;DHT22;9109;48.050;11.696;2023-02-28T08:37:15;-1.20;99.90
17968;DHT22;9109;48.050;11.696;2023-02-28T08:40:17;-1.30;99.90
17968;DHT22;9109;48.050;11.696;2023-02-28T08:43:19;-1.30;99.90
17968;DHT22;9109;48.050;11.696;2023-02-28T08:46:23;-1.20;99.90
17968;DHT22;9109;48.050;11.696;2023-02-28T08:49:25;-1.20;99.90
17968;DHT22;9109;48.050;11.696;2023-02-28T08:52:29;-1.20;99.90
17968;DHT22;9109;48.050;11.696;2023-02-28T08:55:31;-1.20;99.90
17968;DHT22;9109;48.050;11.696;2023-02-28T08:58:33;-1.40;99.90
17968;DHT22;9109;48.050;11.696;2023-02-28T09:01:35;-1.30;99.90
17968;DHT22;9109;48.050;11.696;2023-02-28T09:04:37;-1.20;99.90
17968;DHT22;9109;48.050;11.696;2023-02-28T09:07:40;-1.20;99.90
17968;DHT22;9109;48.050;11.696;2023-02-28T09:10:42;-1.00;99.90
17968;DHT22;9109;48.050;11.696;2023-02-28T09:13:45;-1.10;99.90
17968;DHT22;9109;48.050;11.696;2023-02-28T09:16:47;-1.00;99.90
17968;DHT22;9109;48.050;11.696;2023-02-28T09:19:48;-1.00;99.90
17968;DHT22;9109;48.050;11.696;2023-02-28T09:22:52;-0.80;99.90
17968;DHT22;9109;48.050;11.696;2023-02-28T09:25:54;-0.70;99.90
17968;DHT22;9109;48.050;11.696;2023-02-28T09:28:56;-0.70;99.90
17968;DHT22;9109;48.050;11.696;2023-02-28T09:31:59;-0.70;99.90
17968;DHT22;9109;48.050;11.696;2023-02-28T09:35:01;-0.70;99.90
17968;DHT22;9109;48.050;11.696;2023-02-28T09:38:04;-0.80;99.90
17968;DHT22;9109;48.050;11.696;2023-02-28T09:41:13;-1.00;99.90
17968;DHT22;9109;48.050;11.696;2023-02-28T09:44:20;-0.90;99.90
17968;DHT22;9109;48.050;11.696;2023-02-28T09:47:29;-1.00;99.90
17968;DHT22;9109;48.050;11.696;2023-02-28T09:50:36;-0.80;99.90
17968;DHT22;9109;48.050;11.696;2023-02-28T09:53:41;-0.70;99.90
17968;DHT22;9109;48.050;11.696;2023-02-28T09:56:44;-0.50;99.90
17968;DHT22;9109;48.050;11.696;2023-02-28T09:59:54;-0.50;99.90
17968;DHT22;9109;48.050;11.696;2023-02-28T10:03:19;-0.60;99.90
17968;DHT22;9109;48.050;11.696;2023-02-28T10:06:29;-0.60;99.90
17968;DHT22;9109;48.050;11.696;2023-02-28T10:09:33;-0.40;99.90
17968;DHT22;9109;48.050;11.696;2023-02-28T10:12:40;-0.50;99.90
17968;DHT22;9109;48.050;11.696;2023-02-28T10:15:45;-0.30;99.90
17968;DHT22;9109;48.050;11.696;2023-02-28T10:18:52;-0.20;99.90
17968;DHT22;9109;48.050;11.696;2023-02-28T10:21:58;-0.30;99.90
17968;DHT22;9109;48.050;11.696;2023-02-28T10:25:08;-0.20;99.90
17968;DHT22;9109;48.050;11.696;2023-02-28T10:28:17;-0.30;99.90
17968;DHT22;9109;48.050;11.696;2023-02-28T10:31:20;-0.30;99.90
17968;DHT22;9109;48.050;11.696;2023-02-28T10:34:22;-0.20;99.90
17968;DHT22;9109;48.050;11.696;2023-02-28T10:37:23;-0.40;99.90
17968;DHT22;9109;48.050;11.696;2023-02-28T10:40:30;-0.40;99.90
17968;DHT22;9109;48.050;11.696;2023-02-28T10:43:34;-0.30;99.90
17968;DHT22;9109;48.050;11.696;2023-02-28T10:46:36;-0.30;99.90
17968;DHT22;9109;48.050;11.696;2023-02-28T10:49:47;-0.30;99.90
17968;DHT22;9109;48.050;11.696;2023-02-28T10:52:49;-0.30;99.90
17968;DHT22;9109;48.050;11.696;2023-02-28T10:55:58;-0.30;99.90
17968;DHT22;9109;48.050;11.696;2023-02-28T10:59:03;-0.30;99.90
17968;DHT22;9109;48.050;11.696;2023-02-28T11:02:31;-0.20;99.90
17968;DHT22;9109;48.050;11.696;2023-02-28T11:05:35;-0.40;99.90
17968;DHT22;9109;48.050;11.696;2023-02-28T11:08:45;-0.50;99.90
17968;DHT22;9109;48.050;11.696;2023-02-28T11:11:49;-0.40;99.90
17968;DHT22;9109;48.050;11.696;2023-02-28T11:14:55;-0.40;99.90
17968;DHT22;9109;48.050;11.696;2023-02-28T11:18:00;-0.30;99.90
17968;DHT22;9109;48.050;11.696;2023-02-28T11:21:03;-0.20;99.90
17968;DHT22;9109;48.050;11.696;2023-02-28T11:24:15;-0.10;99.90
17968;DHT22;9109;48.050;11.696;2023-02-28T11:27:45;-0.10;99.90
17968;DHT22;9109;48.050;11.696;2023-02-28T11:31:00;-0.10;99.90
17968;DHT22;9109;48.050;11.696;2023-02-28T11:34:23;0.10;99.90
17968;DHT22;9109;48.050;11.696;2023-02-28T11:37:27;0.10;99.90
17968;DHT22;9109;48.050;11.696;2023-02-28T11:40:36;0.10;99.90
17968;DHT22;9109;48.050;11.696;2023-02-28T11:43:54;0.20;99.90
17968;DHT22;9109;48.050;11.696;2023-02-28T11:47:00;0.40;99.90
17968;DHT22;9109;48.050;11.696;2023-02-28T11:50:38;0.60;99.90
17968;DHT22;9109;48.050;11.696;2023-02-28T11:53:58;0.80;99.90
17968;DHT22;9109;48.050;11.696;2023-02-28T11:57:20;0.60;99.90
17968;DHT22;9109;48.050;11.696;2023-02-28T12:00:38;0.70;99.90
17968;DHT22;9109;48.050;11.696;2023-02-28T12:03:51;0.70;99.90
17968;DHT22;9109;48.050;11.696;2023-02-28T12:07:02;0.80;99.90
17968;DHT22;9109;48.050;11.696;2023-02-28T12:10:14;1.00;99.90
17968;DHT22;9109;48.050;11.696;2023-02-28T12:13:24;1.10;99.90
17968;DHT22;9109;48.050;11.696;2023-02-28T12:16:47;1.20;99.90
17968;DHT22;9109;48.050;11.696;2023-02-28T12:20:02;1.20;99.90
17968;DHT22;9109;48.050;11.696;2023-02-28T12:23:25;1.20;99.90
17968;DHT22;9109;48.050;11.696;2023-02-28T12:26:36;1.20;99.90
17968;DHT22;9109;48.050;11.696;2023-02-28T12:29:45;1.20;99.90
17968;DHT22;9109;48.050;11.696;2023-02-28T12:32:52;1.10;99.90
17968;DHT22;9109;48.050;11.696;2023-02-28T12:35:57;1.00;99.90
17968;DHT22;9109;48.050;11.696;2023-02-28T12:39:02;0.90;99.90
17968;DHT22;9109;48.050;11.696;2023-02-28T12:42:10;1.00;99.90
17968;DHT22;9109;48.050;11.696;2023-02-28T12:45:18;1.20;99.90
17968;DHT22;9109;48.050;11.696;2023-02-28T12:48:27;1.30;99.90
17968;DHT22;9109;48.050;11.696;2023-02-28T12:51:31;1.40;99.90
17968;DHT22;9109;48.050;11.696;2023-02-28T12:54:40;1.50;99.90
17968;DHT22;9109;48.050;11.696;2023-02-28T12:57:49;1.50;99.90
17968;DHT22;9109;48.050;11.696;2023-02-28T13:01:11;1.40;99.90
17968;DHT22;9109;48.050;11.696;2023-02-28T13:11:47;1.50;99.90
17968;DHT22;9109;48.050;11.696;2023-02-28T13:14:50;1.60;99.90
17968;DHT22;9109;48.050;11.696;2023-02-28T13:17:55;1.70;99.90
17968;DHT22;9109;48.050;11.696;2023-02-28T13:20:57;1.80;99.90
17968;DHT22;9109;48.050;11.696;2023-02-28T13:24:03;1.80;99.90
17968;DHT22;9109;48.050;11.696;2023-02-28T13:27:34;1.50;99.90
17968;DHT22;9109;48.050;11.696;2023-02-28T13:31:04;1.60;99.90
17968;DHT22;9109;48.050;11.696;2023-02-28T13:34:14;1.70;99.90
17968;DHT22;9109;48.050;11.696;2023-02-28T13:37:36;1.80;99.90
17968;DHT22;9109;48.050;11.696;2023-02-28T13:40:40;1.80;99.90
17968;DHT22;9109;48.050;11.696;2023-02-28T13:44:03;1.70;99.90
17968;DHT22;9109;48.050;11.696;2023-02-28T13:47:33;1.80;99.90
17968;DHT22;9109;48.050;11.696;2023-02-28T13:50:37;1.60;99.90
17968;DHT22;9109;48.050;11.696;2023-02-28T13:53:51;1.60;99.90
17968;DHT22;9109;48.050;11.696;2023-02-28T13:57:08;1.60;99.90
17968;DHT22;9109;48.050;11.696;2023-02-28T14:00:23;1.60;99.90
17968;DHT22;9109;48.050;11.696;2023-02-28T14:03:44;1.70;99.90
17968;DHT22;9109;48.050;11.696;2023-02-28T14:06:49;1.50;99.90
17968;DHT22;9109;48.050;11.696;2023-02-28T14:10:01;1.60;99.90
17968;DHT22;9109;48.050;11.696;2023-02-28T14:13:38;1.70;99.90
17968;DHT22;9109;48.050;11.696;2023-02-28T14:16:46;1.80;99.90
17968;DHT22;9109;48.050;11.696;2023-02-28T14:19:48;1.70;99.90
17968;DHT22;9109;48.050;11.696;2023-02-28T14:22:57;1.70;99.90
17968;DHT22;9109;48.050;11.696;2023-02-28T14:26:14;1.80;99.90
17968;DHT22;9109;48.050;11.696;2023-02-28T14:33:11;1.90;99.90
17968;DHT22;9109;48.050;11.696;2023-02-28T14:36:21;1.90;99.90
17968;DHT22;9109;48.050;11.696;2023-02-28T14:39:25;1.80;99.90
17968;DHT22;9109;48.050;11.696;2023-02-28T14:42:29;1.80;99.90
17968;DHT22;9109;48.050;11.696;2023-02-28T14:45:34;1.80;99.90
17968;DHT22;9109;48.050;11.696;2023-02-28T14:48:39;1.90;99.90
17968;DHT22;9109;48.050;11.696;2023-02-28T14:51:41;1.90;99.90
17968;DHT22;9109;48.050;11.696;2023-02-28T14:54:43;2.00;99.90
17968;DHT22;9109;48.050;11.696;2023-02-28T14:57:52;2.00;99.90
17968;DHT22;9109;48.050;11.696;2023-02-28T15:00:57;2.10;99.90
17968;DHT22;9109;48.050;11.696;2023-02-28T15:04:02;2.00;99.90
17968;DHT22;9109;48.050;11.696;2023-02-28T15:07:08;2.00;99.90
17968;DHT22;9109;48.050;11.696;2023-02-28T15:10:18;1.90;99.90
17968;DHT22;9109;48.050;11.696;2023-02-28T15:13:20;2.00;99.90
17968;DHT22;9109;48.050;11.696;2023-02-28T15:16:26;2.00;99.90
17968;DHT22;9109;48.050;11.696;2023-02-28T15:19:31;1.90;99.90
17968;DHT22;9109;48.050;11.696;2023-02-28T15:22:35;1.90;99.90
17968;DHT22;9109;48.050;11.696;2023-02-28T15:25:39;2.00;99.90
17968;DHT22;9109;48.050;11.696;2023-02-28T15:28:42;2.00;99.90
17968;DHT22;9109;48.050;11.696;2023-02-28T15:31:49;2.10;99.90
17968;DHT22;9109;48.050;11.696;2023-02-28T15:34:52;2.20;99.90
17968;DHT22;9109;48.050;11.696;2023-02-28T15:37:56;2.30;99.90
17968;DHT22;9109;48.050;11.696;2023-02-28T15:40:58;2.30;99.90
17968;DHT22;9109;48.050;11.696;2023-02-28T15:44:26;2.20;99.90
17968;DHT22;9109;48.050;11.696;2023-02-28T15:47:31;2.10;99.90
17968;DHT22;9109;48.050;11.696;2023-02-28T15:50:34;2.20;99.90
17968;DHT22;9109;48.050;11.696;2023-02-28T15:53:37;2.30;99.90
17968;DHT22;9109;48.050;11.696;2023-02-28T15:56:44;2.30;99.90
17968;DHT22;9109;48.050;11.696;2023-02-28T15:59:51;2.30;99.90
17968;DHT22;9109;48.050;11.696;2023-02-28T16:02:55;2.30;99.90
17968;DHT22;9109;48.050;11.696;2023-02-28T16:06:22;2.40;99.90
17968;DHT22;9109;48.050;11.696;2023-02-28T16:09:26;2.40;99.90
17968;DHT22;9109;48.050;11.696;2023-02-28T16:12:34;2.40;99.90
17968;DHT22;9109;48.050;11.696;2023-02-28T16:15:38;2.40;99.90
17968;DHT22;9109;48.050;11.696;2023-02-28T16:18:45;2.40;99.90
17968;DHT22;9109;48.050;11.696;2023-02-28T16:21:47;2.50;99.90
17968;DHT22;9109;48.050;11.696;2023-02-28T16:24:49;2.50;99.90
17968;DHT22;9109;48.050;11.696;2023-02-28T16:27:52;2.50;99.90
17968;DHT22;9109;48.050;11.696;2023-02-28T16:30:55;2.40;99.90
17968;DHT22;9109;48.050;11.696;2023-02-28T16:33:58;2.40;99.90
17968;DHT22;9109;48.050;11.696;2023-02-28T16:37:00;2.30;99.90
17968;DHT22;9109;48.050;11.696;2023-02-28T16:40:02;2.30;99.90
17968;DHT22;9109;48.050;11.696;2023-02-28T16:43:07;2.30;99.90
17968;DHT22;9109;48.050;11.696;2023-02-28T16:46:11;2.30;99.90
17968;DHT22;9109;48.050;11.696;2023-02-28T16:49:14;2.20;99.90
17968;DHT22;9109;48.050;11.696;2023-02-28T16:52:16;2.20;99.90
17968;DHT22;9109;48.050;11.696;2023-02-28T16:55:18;2.10;99.90
17968;DHT22;9109;48.050;11.696;2023-02-28T16:58:20;2.10;99.90
17968;DHT22;9109;48.050;11.696;2023-02-28T17:01:25;2.10;99.90
17968;DHT22;9109;48.050;11.696;2023-02-28T17:04:29;2.10;99.90
17968;DHT22;9109;48.050;11.696;2023-02-28T17:07:31;2.10;99.90
17968;DHT22;9109;48.050;11.696;2023-02-28T17:10:33;2.10;99.90
17968;DHT22;9109;48.050;11.696;2023-02-28T17:13:34;2.10;99.90
17968;DHT22;9109;48.050;11.696;2023-02-28T17:16:38;2.00;99.90
17968;DHT22;9109;48.050;11.696;2023-02-28T17:19:43;1.90;99.90
17968;DHT22;9109;48.050;11.696;2023-02-28T17:22:45;1.70;99.90
17968;DHT22;9109;48.050;11.696;2023-02-28T17:25:47;1.60;99.90
17968;DHT22;9109;48.050;11.696;2023-02-28T17:28:54;1.50;99.90
17968;DHT22;9109;48.050;11.696;2023-02-28T17:31:57;1.40;99.90
17968;DHT22;9109;48.050;11.696;2023-02-28T17:35:00;1.40;99.90
17968;DHT22;9109;48.050;11.696;2023-02-28T17:38:02;1.30;99.90
17968;DHT22;9109;48.050;11.696;2023-02-28T17:41:04;1.30;99.90
17968;DHT22;9109;48.050;11.696;2023-02-28T17:44:06;1.20;99.90
17968;DHT22;9109;48.050;11.696;2023-02-28T17:47:10;1.10;99.90
17968;DHT22;9109;48.050;11.696;2023-02-28T17:50:17;1.10;99.90
17968;DHT22;9109;48.050;11.696;2023-02-28T17:53:19;1.20;99.90
17968;DHT22;9109;48.050;11.696;2023-02-28T17:56:25;1.20;99.90
17968;DHT22;9109;48.050;11.696;2023-02-28T17:59:27;1.20;99.90
17968;DHT22;9109;48.050;11.696;2023-02-28T18:02:33;1.10;99.90
17968;DHT22;9109;48.050;11.696;2023-02-28T18:05:37;1.10;99.90
17968;DHT22;9109;48.050;11.696;2023-02-28T18:08:39;1.20;99.90
17968;DHT22;9109;48.050;11.696;2023-02-28T18:11:41;1.30;99.90
17968;DHT22;9109;48.050;11.696;2023-02-28T18:14:45;1.30;99.90
17968;DHT22;9109;48.050;11.696;2023-02-28T18:17:48;1.40;99.90
17968;DHT22;9109;48.050;11.696;2023-02-28T18:20:52;1.40;99.90
17968;DHT22;9109;48.050;11.696;2023-02-28T18:23:54;1.50;99.90
17968;DHT22;9109;48.050;11.696;2023-02-28T18:26:55;1.50;99.90
17968;DHT22;9109;48.050;11.696;2023-02-28T18:29:57;1.60;99.90
17968;DHT22;9109;48.050;11.696;2023-02-28T18:33:00;1.60;99.90
17968;DHT22;9109;48.050;11.696;2023-02-28T18:36:04;1.60;99.90
17968;DHT22;9109;48.050;11.696;2023-02-28T18:39:07;1.60;99.90
17968;DHT22;9109;48.050;11.696;2023-02-28T18:42:11;1.60;99.90
17968;DHT22;9109;48.050;11.696;2023-02-28T18:45:16;1.60;99.90
17968;DHT22;9109;48.050;11.696;2023-02-28T18:48:18;1.70;99.90
17968;DHT22;9109;48.050;11.696;2023-02-28T18:51:25;1.70;99.90
17968;DHT22;9109;48.050;11.696;2023-02-28T18:54:27;1.70;99.90
17968;DHT22;9109;48.050;11.696;2023-02-28T18:57:29;1.80;99.90
17968;DHT22;9109;48.050;11.696;2023-02-28T19:00:31;1.90;99.90
17968;DHT22;9109;48.050;11.696;2023-02-28T19:03:33;1.90;99.90
17968;DHT22;9109;48.050;11.696;2023-02-28T19:06:37;1.60;99.90
17968;DHT22;9109;48.050;11.696;2023-02-28T19:09:38;1.50;99.90
17968;DHT22;9109;48.050;11.696;2023-02-28T19:12:54;1.40;99.90
17968;DHT22;9109;48.050;11.696;2023-02-28T19:16:10;1.30;99.90
17968;DHT22;9109;48.050;11.696;2023-02-28T19:19:12;1.40;99.90
17968;DHT22;9109;48.050;11.696;2023-02-28T19:22:15;1.40;99.90
17968;DHT22;9109;48.050;11.696;2023-02-28T19:25:17;1.30;99.90
17968;DHT22;9109;48.050;11.696;2023-02-28T19:28:19;1.30;99.90
17968;DHT22;9109;48.050;11.696;2023-02-28T19:31:23;1.30;99.90
17968;DHT22;9109;48.050;11.696;2023-02-28T19:34:25;1.40;99.90
17968;DHT22;9109;48.050;11.696;2023-02-28T19:37:29;1.40;99.90
17968;DHT22;9109;48.050;11.696;2023-02-28T19:40:31;1.30;99.90
17968;DHT22;9109;48.050;11.696;2023-02-28T19:43:33;1.40;99.90
17968;DHT22;9109;48.050;11.696;2023-02-28T19:46:36;1.40;99.90
17968;DHT22;9109;48.050;11.696;2023-02-28T19:49:38;1.20;99.90
17968;DHT22;9109;48.050;11.696;2023-02-28T19:52:41;1.20;99.90
17968;DHT22;9109;48.050;11.696;2023-02-28T19:55:45;1.20;99.90
17968;DHT22;9109;48.050;11.696;2023-02-28T19:58:48;1.40;99.90
17968;DHT22;9109;48.050;11.696;2023-02-28T20:01:50;1.50;99.90
17968;DHT22;9109;48.050;11.696;2023-02-28T20:04:54;1.50;99.90
17968;DHT22;9109;48.050;11.696;2023-02-28T20:07:58;1.50;99.90
17968;DHT22;9109;48.050;11.696;2023-02-28T20:11:02;1.40;99.90
17968;DHT22;9109;48.050;11.696;2023-02-28T20:14:03;1.30;99.90
17968;DHT22;9109;48.050;11.696;2023-02-28T20:17:05;1.30;99.90
17968;DHT22;9109;48.050;11.696;2023-02-28T20:20:09;1.30;99.90
17968;DHT22;9109;48.050;11.696;2023-02-28T20:23:13;1.40;99.90
17968;DHT22;9109;48.050;11.696;2023-02-28T20:26:16;1.40;99.90
17968;DHT22;9109;48.050;11.696;2023-02-28T20:29:19;1.40;99.90
17968;DHT22;9109;48.050;11.696;2023-02-28T20:32:21;1.30;99.90
17968;DHT22;9109;48.050;11.696;2023-02-28T20:35:23;1.30;99.90
17968;DHT22;9109;48.050;11.696;2023-02-28T20:38:26;1.40;99.90
17968;DHT22;9109;48.050;11.696;2023-02-28T20:41:28;1.40;99.90
17968;DHT22;9109;48.050;11.696;2023-02-28T20:44:30;1.40;99.90
17968;DHT22;9109;48.050;11.696;2023-02-28T20:47:32;1.50;99.90
17968;DHT22;9109;48.050;11.696;2023-02-28T20:50:34;1.50;99.90
17968;DHT22;9109;48.050;11.696;2023-02-28T20:53:37;1.40;99.90
17968;DHT22;9109;48.050;11.696;2023-02-28T20:56:39;1.40;99.90
17968;DHT22;9109;48.050;11.696;2023-02-28T20:59:41;1.50;99.90
17968;DHT22;9109;48.050;11.696;2023-02-28T21:02:43;1.50;99.90
17968;DHT22;9109;48.050;11.696;2023-02-28T21:05:45;1.50;99.90
17968;DHT22;9109;48.050;11.696;2023-02-28T21:08:48;1.50;99.90
17968;DHT22;9109;48.050;11.696;2023-02-28T21:11:52;1.40;99.90
17968;DHT22;9109;48.050;11.696;2023-02-28T21:14:54;1.30;99.90
17968;DHT22;9109;48.050;11.696;2023-02-28T21:17:56;1.40;99.90
17968;DHT22;9109;48.050;11.696;2023-02-28T21:21:00;1.40;99.90
17968;DHT22;9109;48.050;11.696;2023-02-28T21:24:04;1.40;99.90
17968;DHT22;9109;48.050;11.696;2023-02-28T21:27:06;1.40;99.90
17968;DHT22;9109;48.050;11.696;2023-02-28T21:30:09;1.40;99.90
17968;DHT22;9109;48.050;11.696;2023-02-28T21:33:11;1.40;99.90
17968;DHT22;9109;48.050;11.696;2023-02-28T21:36:14;1.40;99.90
17968;DHT22;9109;48.050;11.696;2023-02-28T21:39:20;1.40;99.90
17968;DHT22;9109;48.050;11.696;2023-02-28T21:42:22;1.40;99.90
17968;DHT22;9109;48.050;11.696;2023-02-28T21:45:27;1.40;99.90
17968;DHT22;9109;48.050;11.696;2023-02-28T21:48:29;1.30;99.90
17968;DHT22;9109;48.050;11.696;2023-02-28T21:51:31;1.30;99.90
17968;DHT22;9109;48.050;11.696;2023-02-28T21:54:34;1.30;99.90
17968;DHT22;9109;48.050;11.696;2023-02-28T21:57:36;1.30;99.90
17968;DHT22;9109;48.050;11.696;2023-02-28T22:00:38;1.30;99.90
17968;DHT22;9109;48.050;11.696;2023-02-28T22:03:41;1.30;99.90
17968;DHT22;9109;48.050;11.696;2023-02-28T22:06:44;1.20;99.90
17968;DHT22;9109;48.050;11.696;2023-02-28T22:09:47;1.20;99.90
17968;DHT22;9109;48.050;11.696;2023-02-28T22:12:49;1.20;99.90
17968;DHT22;9109;48.050;11.696;2023-02-28T22:15:51;1.30;99.90
17968;DHT22;9109;48.050;11.696;2023-02-28T22:18:54;1.30;99.90
17968;DHT22;9109;48.050;11.696;2023-02-28T22:22:06;1.30;99.90
17968;DHT22;9109;48.050;11.696;2023-02-28T22:25:09;1.30;99.90
17968;DHT22;9109;48.050;11.696;2023-02-28T22:28:11;1.30;99.90
17968;DHT22;9109;48.050;11.696;2023-02-28T22:31:17;1.30;99.90
17968;DHT22;9109;48.050;11.696;2023-02-28T22:34:19;1.20;99.90
17968;DHT22;9109;48.050;11.696;2023-02-28T22:37:21;1.30;99.90
17968;DHT22;9109;48.050;11.696;2023-02-28T22:40:24;1.20;99.90
17968;DHT22;9109;48.050;11.696;2023-02-28T22:43:26;1.20;99.90
17968;DHT22;9109;48.050;11.696;2023-02-28T22:46:30;1.30;99.90
17968;DHT22;9109;48.050;11.696;2023-02-28T22:49:33;1.30;99.90
17968;DHT22;9109;48.050;11.696;2023-02-28T22:52:36;1.30;99.90
17968;DHT22;9109;48.050;11.696;2023-02-28T22:55:40;1.30;99.90
17968;DHT22;9109;48.050;11.696;2023-02-28T22:58:42;1.30;99.90
17968;DHT22;9109;48.050;11.696;2023-02-28T23:01:44;1.30;99.90
17968;DHT22;9109;48.050;11.696;2023-02-28T23:04:46;1.20;99.90
17968;DHT22;9109;48.050;11.696;2023-02-28T23:07:48;1.20;99.90
17968;DHT22;9109;48.050;11.696;2023-02-28T23:10:51;1.20;99.90
17968;DHT22;9109;48.050;11.696;2023-02-28T23:13:54;1.20;99.90
17968;DHT22;9109;48.050;11.696;2023-02-28T23:17:01;1.20;99.90
17968;DHT22;9109;48.050;11.696;2023-02-28T23:20:03;1.20;99.90
17968;DHT22;9109;48.050;11.696;2023-02-28T23:23:09;1.10;99.90
17968;DHT22;9109;48.050;11.696;2023-02-28T23:26:13;1.20;99.90
17968;DHT22;9109;48.050;11.696;2023-02-28T23:29:17;1.20;99.90
17968;DHT22;9109;48.050;11.696;2023-02-28T23:32:20;1.10;99.90
17968;DHT22;9109;48.050;11.696;2023-02-28T23:35:21;1.10;99.90
17968;DHT22;9109;48.050;11.696;2023-02-28T23:38:23;1.00;99.90
17968;DHT22;9109;48.050;11.696;2023-02-28T23:41:27;1.00;99.90
17968;DHT22;9109;48.050;11.696;2023-02-28T23:44:28;1.10;99.90
17968;DHT22;9109;48.050;11.696;2023-02-28T23:47:31;1.00;99.90
17968;DHT22;9109;48.050;11.696;2023-02-28T23:50:33;1.00;99.90
17968;DHT22;9109;48.050;11.696;2023-02-28T23:53:35;1.10;99.90
17968;DHT22;9109;48.050;11.696;2023-02-28T23:56:39;1.20;99.90
17968;DHT22;9109;48.050;11.696;2023-02-28T23:59:41;1.20;99.90
